createdAt,value
2018-01-17T00:00:32.961Z,0.98
2018-01-17T00:03:01.185Z,2.35
2018-01-17T00:05:28.442Z,2.37
2018-01-17T00:07:55.708Z,3.85
2018-01-17T00:10:22.957Z,1.40
2018-01-17T00:12:50.215Z,1.67
2018-01-17T00:15:17.428Z,3.83
2018-01-17T00:17:44.655Z,1.98
2018-01-17T00:20:11.882Z,3.53
2018-01-17T00:22:41.993Z,4.32
2018-01-17T00:25:09.178Z,3.10
2018-01-17T00:27:36.417Z,1.77
2018-01-17T00:30:03.635Z,1.73
2018-01-17T00:32:30.858Z,3.67
2018-01-17T00:34:58.082Z,3.40
2018-01-17T00:37:25.318Z,1.33
2018-01-17T00:39:52.535Z,1.10
2018-01-17T00:42:19.760Z,0.82
2018-01-17T00:44:46.979Z,1.30
2018-01-17T00:47:14.224Z,2.25
2018-01-17T00:49:41.444Z,2.40
2018-01-17T00:52:08.672Z,2.10
2018-01-17T00:54:35.907Z,1.73
2018-01-17T00:57:03.120Z,3.00
2018-01-17T00:59:30.357Z,1.15
2018-01-17T01:01:57.576Z,2.00
2018-01-17T01:04:24.802Z,3.92
2018-01-17T01:06:52.021Z,2.10
2018-01-17T01:09:19.263Z,1.20
2018-01-17T01:11:46.487Z,1.00
2018-01-17T01:14:13.712Z,1.00
2018-01-17T01:16:40.939Z,1.27
2018-01-17T01:19:08.168Z,1.40
2018-01-17T01:21:35.392Z,0.98
2018-01-17T01:24:02.624Z,1.75
2018-01-17T01:26:29.829Z,1.00
2018-01-17T01:28:57.068Z,1.30
2018-01-17T01:31:24.330Z,1.92
2018-01-17T01:33:52.043Z,1.50
2018-01-17T01:36:19.292Z,1.85
2018-01-17T01:38:46.858Z,1.15
2018-01-17T01:41:14.074Z,2.08
2018-01-17T01:43:41.348Z,2.60
2018-01-17T01:46:08.610Z,1.17
2018-01-17T01:48:35.875Z,3.40
2018-01-17T01:51:03.143Z,3.83
2018-01-17T01:53:30.418Z,1.23
2018-01-17T01:55:57.678Z,2.40
2018-01-17T01:58:24.942Z,5.47
2018-01-17T02:00:52.200Z,2.35
2018-01-17T02:03:19.454Z,2.70
2018-01-17T02:05:46.723Z,2.83
2018-01-17T02:08:13.979Z,2.15
2018-01-17T02:10:41.244Z,2.80
2018-01-17T02:13:08.498Z,1.67
2018-01-17T02:15:35.770Z,2.00
2018-01-17T02:18:03.030Z,6.50
2018-01-17T02:20:30.255Z,1.90
2018-01-17T02:22:57.457Z,2.90
2018-01-17T02:25:24.693Z,2.00
2018-01-17T02:27:51.917Z,2.55
2018-01-17T02:30:19.156Z,1.75
2018-01-17T02:32:46.378Z,1.87
2018-01-17T02:35:13.612Z,3.20
2018-01-17T02:37:40.836Z,1.27
2018-01-17T02:40:19.907Z,4.85
2018-01-17T02:42:47.170Z,2.28
2018-01-17T02:45:14.340Z,2.25
2018-01-17T02:47:41.547Z,1.85
2018-01-17T02:50:08.779Z,2.15
2018-01-17T02:52:35.989Z,2.90
2018-01-17T02:55:03.207Z,7.18
2018-01-17T02:57:30.431Z,3.47
2018-01-17T02:59:57.635Z,3.37
2018-01-17T03:02:24.861Z,5.95
2018-01-17T03:04:52.093Z,4.97
2018-01-17T03:07:19.300Z,4.40
2018-01-17T03:09:46.533Z,5.47
2018-01-17T03:12:13.751Z,3.83
2018-01-17T03:14:40.960Z,1.98
2018-01-17T03:17:08.180Z,3.15
2018-01-17T03:19:35.401Z,3.12
2018-01-17T03:22:02.611Z,3.22
2018-01-17T03:24:29.836Z,1.30
2018-01-17T03:26:57.063Z,4.78
2018-01-17T03:29:24.268Z,6.12
2018-01-17T03:31:51.496Z,1.50
2018-01-17T03:34:18.712Z,2.47
2018-01-17T03:36:45.927Z,4.70
2018-01-17T03:39:13.135Z,3.05
2018-01-17T03:41:40.355Z,5.15
2018-01-17T03:44:07.564Z,1.08
2018-01-17T03:46:35.776Z,4.62
2018-01-17T03:49:02.993Z,2.25
2018-01-17T03:51:30.203Z,1.10
2018-01-17T03:53:57.423Z,1.33
2018-01-17T03:56:24.641Z,2.87
2018-01-17T03:58:51.856Z,2.42
2018-01-17T04:01:19.073Z,2.28
2018-01-17T04:03:46.279Z,0.90
2018-01-17T04:06:13.502Z,2.33
2018-01-17T04:08:40.716Z,1.62
2018-01-17T04:11:07.936Z,0.98
2018-01-17T04:13:35.155Z,1.00
2018-01-17T04:16:02.368Z,0.60
2018-01-17T04:18:29.588Z,0.82
2018-01-17T04:20:56.801Z,0.70
2018-01-17T04:23:24.019Z,0.70
2018-01-17T04:25:51.231Z,0.77
2018-01-17T04:28:18.458Z,0.70
2018-01-17T04:30:45.664Z,0.75
2018-01-17T04:33:12.979Z,1.98
2018-01-17T04:35:40.188Z,0.85
2018-01-17T04:38:07.421Z,1.10
2018-01-17T04:40:34.635Z,0.80
2018-01-17T04:43:01.851Z,2.95
2018-01-17T04:45:29.055Z,2.58
2018-01-17T04:47:56.284Z,1.50
2018-01-17T04:50:23.488Z,0.90
2018-01-17T04:52:50.715Z,0.90
2018-01-17T04:55:18.225Z,1.27
2018-01-17T04:57:45.450Z,2.83
2018-01-17T05:00:12.655Z,0.90
2018-01-17T05:02:39.880Z,0.80
2018-01-17T05:05:07.092Z,0.80
2018-01-17T05:07:34.322Z,0.82
2018-01-17T05:10:01.531Z,2.28
2018-01-17T05:12:28.786Z,1.52
2018-01-17T05:14:55.995Z,1.20
2018-01-17T05:17:23.219Z,1.45
2018-01-17T05:19:50.452Z,3.10
2018-01-17T05:22:17.676Z,1.95
2018-01-17T05:24:44.893Z,3.72
2018-01-17T05:27:12.100Z,1.45
2018-01-17T05:29:39.324Z,4.93
2018-01-17T05:32:06.532Z,2.25
2018-01-17T05:34:33.761Z,4.80
2018-01-17T05:37:00.980Z,0.88
2018-01-17T05:39:28.208Z,2.40
2018-01-17T05:41:55.420Z,1.90
2018-01-17T05:44:22.744Z,5.32
2018-01-17T05:46:49.947Z,1.75
2018-01-17T05:49:17.161Z,2.80
2018-01-17T05:51:44.380Z,1.20
2018-01-17T05:54:11.632Z,4.95
2018-01-17T05:56:38.859Z,2.85
2018-01-17T05:59:07.668Z,2.72
2018-01-17T06:01:34.889Z,3.47
2018-01-17T06:04:02.104Z,1.77
2018-01-17T06:06:29.332Z,4.32
2018-01-17T06:08:56.554Z,2.20
2018-01-17T06:11:23.765Z,3.72
2018-01-17T06:13:50.984Z,5.62
2018-01-17T06:16:18.204Z,2.28
2018-01-17T06:18:45.531Z,1.05
2018-01-17T06:21:12.749Z,2.20
2018-01-17T06:23:39.963Z,2.97
2018-01-17T06:26:07.180Z,2.75
2018-01-17T06:28:34.404Z,1.42
2018-01-17T06:31:02.346Z,2.75
2018-01-17T06:33:31.339Z,1.70
2018-01-17T06:36:04.392Z,1.08
2018-01-17T06:38:31.603Z,1.35
2018-01-17T06:40:58.851Z,2.00
2018-01-17T06:43:26.062Z,1.20
2018-01-17T06:45:53.280Z,1.30
2018-01-17T06:48:20.499Z,1.85
2018-01-17T06:50:47.735Z,0.90
2018-01-17T06:53:16.682Z,0.90
2018-01-17T06:55:43.929Z,0.90
2018-01-17T06:58:11.145Z,1.30
2018-01-17T07:00:39.056Z,3.50
2018-01-17T07:03:06.274Z,1.27
2018-01-17T07:05:33.502Z,3.40
2018-01-17T07:08:00.709Z,1.10
2018-01-17T07:10:27.932Z,0.95
2018-01-17T07:12:55.148Z,1.50
2018-01-17T07:15:22.369Z,0.88
2018-01-17T07:17:49.596Z,1.50
2018-01-17T07:20:16.807Z,6.15
2018-01-17T07:22:44.031Z,1.40
2018-01-17T07:25:11.255Z,1.10
2018-01-17T07:27:38.471Z,1.20
2018-01-17T07:30:05.703Z,1.15
2018-01-17T07:32:32.999Z,2.50
2018-01-17T07:35:00.215Z,1.65
2018-01-17T07:37:27.437Z,1.60
2018-01-17T07:39:54.830Z,2.55
2018-01-17T07:42:22.148Z,2.72
2018-01-17T07:44:50.291Z,2.78
2018-01-17T07:47:17.511Z,1.40
2018-01-17T07:49:44.801Z,2.45
2018-01-17T07:52:12.036Z,2.37
2018-01-17T07:54:39.251Z,4.20
2018-01-17T07:57:06.476Z,1.42
2018-01-17T07:59:34.651Z,1.65
2018-01-17T08:02:01.880Z,1.40
2018-01-17T08:04:30.037Z,1.05
2018-01-17T08:06:57.251Z,2.40
2018-01-17T08:09:25.199Z,5.90
2018-01-17T08:11:52.415Z,3.75
2018-01-17T08:14:19.632Z,2.53
2018-01-17T08:16:46.856Z,2.25
2018-01-17T08:19:14.071Z,1.87
2018-01-17T08:21:42.244Z,1.90
2018-01-17T08:24:11.296Z,2.40
2018-01-17T08:26:38.603Z,1.35
2018-01-17T08:29:05.816Z,6.87
2018-01-17T08:31:33.044Z,6.05
2018-01-17T08:34:00.256Z,6.78
2018-01-17T08:36:27.488Z,1.77
2018-01-17T08:38:54.699Z,2.37
2018-01-17T08:41:21.923Z,5.05
2018-01-17T08:43:49.139Z,3.50
2018-01-17T08:46:16.360Z,2.50
2018-01-17T08:48:43.616Z,1.05
2018-01-17T08:51:10.823Z,6.25
2018-01-17T08:53:38.045Z,9.68
2018-01-17T08:56:05.268Z,6.50
2018-01-17T08:58:32.492Z,2.17
2018-01-17T09:00:59.708Z,1.50
2018-01-17T09:03:26.924Z,2.30
2018-01-17T09:05:54.139Z,1.75
2018-01-17T09:08:21.355Z,2.30
2018-01-17T09:10:48.568Z,1.80
2018-01-17T09:13:15.798Z,1.50
2018-01-17T09:15:43.045Z,3.67
2018-01-17T09:18:10.268Z,2.58
2018-01-17T09:20:37.699Z,2.55
2018-01-17T09:23:04.928Z,3.00
2018-01-17T09:25:33.107Z,4.18
2018-01-17T09:28:00.298Z,3.08
2018-01-17T09:30:27.530Z,4.20
2018-01-17T09:32:54.747Z,1.67
2018-01-17T09:35:21.970Z,0.90
2018-01-17T09:37:49.730Z,2.45
2018-01-17T09:40:16.945Z,2.62
2018-01-17T09:42:44.170Z,1.30
2018-01-17T09:45:11.389Z,2.50
2018-01-17T09:47:38.613Z,2.22
2018-01-17T09:50:05.844Z,1.10
2018-01-17T09:52:33.053Z,2.08
2018-01-17T09:55:00.276Z,3.90
2018-01-17T09:57:27.488Z,2.40
2018-01-17T09:59:54.724Z,2.55
2018-01-17T10:02:21.962Z,1.60
2018-01-17T10:04:49.182Z,1.65
2018-01-17T10:07:16.405Z,2.90
2018-01-17T10:09:43.633Z,2.12
2018-01-17T10:12:10.840Z,1.50
2018-01-17T10:14:38.337Z,1.60
2018-01-17T10:17:06.504Z,1.52
2018-01-17T10:19:34.704Z,2.15
2018-01-17T10:22:01.937Z,1.60
2018-01-17T10:24:30.115Z,2.40
2018-01-17T10:26:57.335Z,1.17
2018-01-17T10:29:25.544Z,1.50
2018-01-17T10:31:52.759Z,1.42
2018-01-17T10:34:19.981Z,4.62
2018-01-17T10:36:47.195Z,2.03
2018-01-17T10:39:14.421Z,2.08
2018-01-17T10:41:41.635Z,3.47
2018-01-17T10:44:08.866Z,2.12
2018-01-17T10:46:36.071Z,1.00
2018-01-17T10:49:04.305Z,2.75
2018-01-17T10:51:36.340Z,1.50
2018-01-17T10:54:03.675Z,1.17
2018-01-17T10:56:30.888Z,3.58
2018-01-17T10:58:58.111Z,1.23
2018-01-17T11:01:25.332Z,1.08
2018-01-17T11:03:52.547Z,1.45
2018-01-17T11:06:19.772Z,1.70
2018-01-17T11:08:47.037Z,1.27
2018-01-17T11:11:14.265Z,2.80
2018-01-17T11:13:41.477Z,2.55
2018-01-17T11:16:08.693Z,3.30
2018-01-17T11:18:35.972Z,5.25
2018-01-17T11:21:03.231Z,1.62
2018-01-17T11:23:30.446Z,4.20
2018-01-17T11:25:57.665Z,2.85
2018-01-17T11:28:24.877Z,2.37
2018-01-17T11:30:52.109Z,6.32
2018-01-17T11:33:19.319Z,4.43
2018-01-17T11:35:46.599Z,1.42
2018-01-17T11:38:14.762Z,4.25
2018-01-17T11:40:41.992Z,3.35
2018-01-17T11:43:09.210Z,5.35
2018-01-17T11:45:36.436Z,5.93
2018-01-17T11:48:03.655Z,2.65
2018-01-17T11:50:31.855Z,3.45
2018-01-17T11:52:59.071Z,2.00
2018-01-17T11:55:26.294Z,6.32
2018-01-17T11:57:53.508Z,2.10
2018-01-17T12:00:20.732Z,2.85
2018-01-17T12:02:47.975Z,3.72
2018-01-17T12:05:15.200Z,4.85
2018-01-17T12:07:42.421Z,3.97
2018-01-17T12:10:09.644Z,5.43
2018-01-17T12:12:36.857Z,4.93
2018-01-17T12:15:04.080Z,9.82
2018-01-17T12:17:31.311Z,2.53
2018-01-17T12:19:58.524Z,4.87
2018-01-17T12:22:26.660Z,5.00
2018-01-17T12:24:53.871Z,5.87
2018-01-17T12:27:21.092Z,9.85
2018-01-17T12:29:48.329Z,2.33
2018-01-17T12:32:15.559Z,1.30
2018-01-17T12:34:43.745Z,5.00
2018-01-17T12:37:10.969Z,6.43
2018-01-17T12:39:38.186Z,8.40
2018-01-17T12:42:05.408Z,3.55
2018-01-17T12:44:32.616Z,5.47
2018-01-17T12:46:59.842Z,6.62
2018-01-17T12:49:27.055Z,4.28
2018-01-17T12:51:54.296Z,3.17
2018-01-17T12:54:21.509Z,5.20
2018-01-17T12:56:48.732Z,16.02
2018-01-17T12:59:15.957Z,11.50
2018-01-17T13:01:43.211Z,3.97
2018-01-17T13:04:10.406Z,5.95
2018-01-17T13:06:37.636Z,13.38
2018-01-17T13:09:05.666Z,13.15
2018-01-17T13:11:32.940Z,22.45
2018-01-17T13:14:00.159Z,11.50
2018-01-17T13:16:27.386Z,7.60
2018-01-17T13:18:54.604Z,5.82
2018-01-17T13:21:21.850Z,5.45
2018-01-17T13:23:49.111Z,8.70
2018-01-17T13:26:16.959Z,6.85
2018-01-17T13:28:44.164Z,5.93
2018-01-17T13:31:11.384Z,9.20
2018-01-17T13:33:38.606Z,3.83
2018-01-17T13:36:05.812Z,7.10
2018-01-17T13:38:33.041Z,6.20
2018-01-17T13:41:01.376Z,5.07
2018-01-17T13:43:28.609Z,6.18
2018-01-17T13:45:55.873Z,8.10
2018-01-17T13:48:23.096Z,4.85
2018-01-17T13:50:53.376Z,8.68
2018-01-17T13:53:21.568Z,7.90
2018-01-17T13:55:48.846Z,9.05
2018-01-17T13:58:16.071Z,3.78
2018-01-17T14:00:44.842Z,5.12
2018-01-17T14:03:12.058Z,6.30
2018-01-17T14:05:39.271Z,10.75
2018-01-17T14:08:06.548Z,6.78
2018-01-17T14:54:14.306Z,5.57
2018-01-17T14:56:41.520Z,18.27
2018-01-17T14:59:08.826Z,19.67
2018-01-17T15:01:36.028Z,12.98
2018-01-17T15:04:03.279Z,11.35
2018-01-17T15:06:30.492Z,8.20
2018-01-17T15:08:57.720Z,6.65
2018-01-17T15:11:24.943Z,10.52
2018-01-17T15:13:52.160Z,8.32
2018-01-17T15:16:19.457Z,12.88
2018-01-17T15:18:46.663Z,6.87
2018-01-17T15:21:13.909Z,9.15
2018-01-17T15:23:42.076Z,14.55
2018-01-17T15:26:09.300Z,17.85
2018-01-17T15:28:36.529Z,10.15
2018-01-17T15:31:03.745Z,4.85
2018-01-17T15:33:30.992Z,10.60
2018-01-17T15:35:58.212Z,12.10
2018-01-17T15:38:26.241Z,8.05
2018-01-17T15:40:53.469Z,15.20
2018-01-17T15:43:20.688Z,10.07
2018-01-17T15:45:48.010Z,6.07
2018-01-17T15:48:15.212Z,8.85
2018-01-17T15:50:42.536Z,9.10
2018-01-17T15:53:09.757Z,13.60
2018-01-17T15:55:36.983Z,6.95
2018-01-17T15:58:05.114Z,9.38
2018-01-17T16:00:32.340Z,7.30
2018-01-17T16:02:59.656Z,15.80
2018-01-17T16:05:26.889Z,18.85
2018-01-17T16:07:54.108Z,12.88
2018-01-17T16:10:21.355Z,11.45
2018-01-17T16:12:49.593Z,10.65
2018-01-17T16:15:16.820Z,8.07
2018-01-17T16:17:44.041Z,9.88
2018-01-17T16:20:11.273Z,14.38
2018-01-17T16:22:38.495Z,19.35
2018-01-17T16:25:05.748Z,25.48
2018-01-17T16:27:32.968Z,17.90
2018-01-17T16:30:00.192Z,15.65
2018-01-17T16:32:27.414Z,12.73
2018-01-17T16:34:54.644Z,18.45
2018-01-17T16:37:21.869Z,14.87
2018-01-17T16:39:49.078Z,14.35
2018-01-17T16:42:16.307Z,19.00
2018-01-17T16:44:43.523Z,17.10
2018-01-17T16:47:10.756Z,25.37
2018-01-17T16:49:37.976Z,21.02
2018-01-17T16:52:05.204Z,16.98
2018-01-17T16:54:32.415Z,18.75
2018-01-17T16:56:59.650Z,14.90
2018-01-17T16:59:26.864Z,4.75
2018-01-17T17:01:54.088Z,11.63
2018-01-17T17:04:21.323Z,12.43
2018-01-17T17:06:48.555Z,17.37
2018-01-17T17:09:15.767Z,13.82
2018-01-17T17:11:43.975Z,12.88
2018-01-17T17:14:11.190Z,13.10
2018-01-17T17:16:38.472Z,9.35
2018-01-17T17:19:05.680Z,23.30
2018-01-17T17:21:32.904Z,6.50
2018-01-17T17:24:00.127Z,8.73
2018-01-17T17:26:27.440Z,15.32
2018-01-17T17:28:54.660Z,10.35
2018-01-17T17:31:22.253Z,14.27
2018-01-17T17:33:49.559Z,12.18
2018-01-17T17:36:17.792Z,22.70
2018-01-17T17:38:44.960Z,11.43
2018-01-17T17:41:12.184Z,13.45
2018-01-17T17:43:39.406Z,10.93
2018-01-17T17:46:06.627Z,11.38
2018-01-17T17:48:33.844Z,14.77
2018-01-17T17:51:01.066Z,22.83
2018-01-17T17:53:29.090Z,13.85
2018-01-17T17:55:56.318Z,13.95
2018-01-17T17:58:23.539Z,10.93
2018-01-17T18:00:50.805Z,14.68
2018-01-17T18:03:17.996Z,19.75
2018-01-17T18:05:45.212Z,10.25
2018-01-17T18:08:13.459Z,14.07
2018-01-17T18:10:40.678Z,13.88
2018-01-17T18:13:07.899Z,16.55
2018-01-17T18:15:35.116Z,13.02
2018-01-17T18:18:02.340Z,13.73
2018-01-17T18:20:29.551Z,18.02
2018-01-17T18:22:56.779Z,11.35
2018-01-17T18:25:23.995Z,6.68
2018-01-17T18:27:51.372Z,9.90
2018-01-17T18:30:18.574Z,11.27
2018-01-17T18:32:45.799Z,10.27
2018-01-17T18:35:13.952Z,8.65
2018-01-17T18:37:41.175Z,12.77
2018-01-17T18:40:08.387Z,5.37
2018-01-17T18:42:35.612Z,7.22
2018-01-17T18:45:02.859Z,5.43
2018-01-17T18:47:30.080Z,10.23
2018-01-17T18:49:57.309Z,8.35
2018-01-17T18:52:24.542Z,10.57
2018-01-17T18:54:51.769Z,8.05
2018-01-17T18:57:18.993Z,14.05
2018-01-17T18:59:46.205Z,8.77
2018-01-17T19:02:13.432Z,11.68
2018-01-17T19:04:40.648Z,11.02
2018-01-17T19:07:07.879Z,11.00
2018-01-17T19:09:35.092Z,8.68
2018-01-17T19:12:02.317Z,11.15
2018-01-17T19:14:29.541Z,17.77
2018-01-17T19:16:56.771Z,10.13
2018-01-17T19:19:24.001Z,8.85
2018-01-17T19:21:51.216Z,10.10
2018-01-17T19:24:18.437Z,6.97
2018-01-17T19:26:45.663Z,9.38
2018-01-17T19:29:12.880Z,8.07
2018-01-17T19:31:40.096Z,10.88
2018-01-17T19:34:08.236Z,12.20
2018-01-17T19:36:35.486Z,7.68
2018-01-17T19:39:02.679Z,12.90
2018-01-17T19:41:29.891Z,22.20
2018-01-17T19:43:57.116Z,12.43
2018-01-17T19:46:24.340Z,8.32
2018-01-17T19:48:51.573Z,9.73
2018-01-17T19:51:18.854Z,9.50
2018-01-17T19:53:46.073Z,8.73
2018-01-17T19:56:13.342Z,13.23
2018-01-17T19:58:40.563Z,9.27
2018-01-17T20:01:07.824Z,9.25
2018-01-17T20:03:35.041Z,7.22
2018-01-17T20:06:02.300Z,3.60
2018-01-17T20:08:29.527Z,11.45
2018-01-17T20:10:56.755Z,15.63
2018-01-17T20:13:24.063Z,8.85
2018-01-17T20:15:51.280Z,13.20
2018-01-17T20:18:19.600Z,17.62
2018-01-17T20:20:50.182Z,5.18
2018-01-17T20:23:17.392Z,10.07
2018-01-17T20:25:44.662Z,15.40
2018-01-17T20:28:11.904Z,8.85
2018-01-17T20:30:39.353Z,9.25
2018-01-17T20:33:06.592Z,5.60
2018-01-17T20:35:33.853Z,6.53
2018-01-17T20:38:01.056Z,10.48
2018-01-17T20:40:28.284Z,5.97
2018-01-17T20:42:55.519Z,10.43
2018-01-17T20:45:22.743Z,10.68
2018-01-17T20:47:49.952Z,8.02
2018-01-17T20:50:17.176Z,6.72
2018-01-17T20:52:44.458Z,10.60
2018-01-17T20:55:11.725Z,11.35
2018-01-17T20:57:38.982Z,6.10
2018-01-17T21:00:06.203Z,9.07
2018-01-17T21:02:33.472Z,11.05
2018-01-17T21:05:00.738Z,6.35
2018-01-17T21:07:27.948Z,11.07
2018-01-17T21:09:56.190Z,6.87
2018-01-17T21:12:23.438Z,9.18
2018-01-17T21:14:50.705Z,10.98
2018-01-17T21:17:17.908Z,8.63
2018-01-17T21:19:45.134Z,5.82
2018-01-17T21:22:12.351Z,5.75
2018-01-17T21:24:39.563Z,11.50
2018-01-17T21:27:06.831Z,6.55
2018-01-17T21:29:34.033Z,6.93
2018-01-17T21:32:01.295Z,15.07
2018-01-17T21:34:28.492Z,3.62
2018-01-17T21:36:55.777Z,6.82
2018-01-17T21:39:22.996Z,10.32
2018-01-17T21:41:50.312Z,9.05
2018-01-17T21:44:25.226Z,4.90
2018-01-17T21:46:52.445Z,6.93
2018-01-17T21:49:20.643Z,11.55
2018-01-17T21:51:47.868Z,8.32
2018-01-17T21:54:15.130Z,7.93
2018-01-17T21:56:42.335Z,4.18
2018-01-17T22:02:40.896Z,5.65
2018-01-17T22:05:08.183Z,4.95
2018-01-17T22:07:35.397Z,11.15
2018-01-17T22:10:06.267Z,13.77
2018-01-17T22:12:33.489Z,6.62
2018-01-17T22:15:00.747Z,3.00
2018-01-17T22:17:27.964Z,5.22
2018-01-17T22:19:55.176Z,2.60
2018-01-17T22:22:22.399Z,2.75
2018-01-17T22:24:49.616Z,2.85
2018-01-17T22:27:16.843Z,2.30
2018-01-17T22:29:44.060Z,3.75
2018-01-17T22:32:11.286Z,5.25
2018-01-17T22:34:38.514Z,6.30
2018-01-17T22:37:05.779Z,3.28
2018-01-17T22:39:32.976Z,2.87
2018-01-17T22:42:00.201Z,2.85
2018-01-17T22:44:27.407Z,4.50
2018-01-17T22:46:54.636Z,4.72
2018-01-17T22:49:21.853Z,8.55
2018-01-17T22:51:49.072Z,6.72
2018-01-17T22:54:16.288Z,4.62
2018-01-17T22:56:43.512Z,5.70
2018-01-17T22:59:10.733Z,13.48
2018-01-17T23:01:37.966Z,10.88
2018-01-17T23:04:06.140Z,5.62
2018-01-17T23:06:35.350Z,6.05
2018-01-17T23:09:06.704Z,9.98
2018-01-17T23:11:34.862Z,7.00
2018-01-17T23:14:02.083Z,4.85
2018-01-17T23:16:29.305Z,10.80
2018-01-17T23:18:57.444Z,5.00
2018-01-17T23:21:24.695Z,4.45
2018-01-17T23:23:53.900Z,8.05
2018-01-17T23:26:21.119Z,16.52
2018-01-17T23:28:48.339Z,6.70
2018-01-17T23:31:15.568Z,10.82
2018-01-17T23:33:42.789Z,10.63
2018-01-17T23:36:13.539Z,6.95
2018-01-17T23:38:40.755Z,10.68
2018-01-17T23:41:07.993Z,10.35
2018-01-17T23:43:35.221Z,10.82
2018-01-17T23:46:02.441Z,7.57
2018-01-17T23:48:29.666Z,18.40
2018-01-17T23:50:56.895Z,4.40
2018-01-17T23:53:24.124Z,16.42
2018-01-17T23:55:51.339Z,12.20
2018-01-17T23:58:18.556Z,7.55
